Details From SCDA - Diego Aracena Intl
To MUHG - Frank Pais Intl
Flight Number -
Tags Decoded
Created
Modified
Stats Distance 2,510 nm / 4,649 km
Max Altitude 0 ft / 0 m
Waypoints 2
Social Downloads 0
Likes 0
Share VATSIM

Download

Looking for another format? Having issues loading an existing format? Contact us
Advertisement - Login to hide

Notes

Decoded

Route

UCU UHG

ID Type Via Altitude Latitude Longitude Leg Dist Tot Dist Heading (true) Name
O UCU NDB - 0 ft / 0 m -20.57111˚ -70.18333˚ - 0 nm - IQUIQUE NDB
O UHG VOR - 0 ft / 0 m 20.79806˚ -76.30306˚ 2510 nm 2510 nm 351° / 351° HOLGUIN VOR-DME

Altitude Profile

Advertisement - Login to hide

Weather


0- 5 10 15 20 25 30 35+ Temperature / ° C

Clouds and Precipitation
Forecast for 2018-05-26 00:00 UTC. Updated 5 hours ago

Ground ~20,000 ft ~40,000 ft Winds

SCDA

Details ICAO SCDA (IQQ)
Name DIEGO ARACENA INTL
Region Chile
Timezone America/Santiago (UTC-4.0)
Stats Elevation 155 ft / 47 m (AMSL)
Location -20.535228° -70.181279°
Runways 1
Magnetic Variation 4.946° W

METAR

SCDA 260400Z 23003KT 190V290 9999 OVC022 17/12 Q1016

Decode

TAF

TAF SCDA 252248Z 2600/2624 21012KT 9999 OVC020 TN15/2606Z TX18/2617Z BECMG 2603/2605 20004KT BECMG 2615/2617 26010KT BKN025 BECMG 2620/ 2622 22012KT OVC020

Decode

Departure Runways

ID Width Length Bearing (true) Bearing (mag) Surface Threshold Offset Overrun Length
18 148 ft / 45 m 11,048 ft / 3,368 m 182.87° 187.82° Asphalt 0 ft / 0 m 200 ft / 61 m
36 148 ft / 45 m 11,048 ft / 3,368 m 2.87° 7.82° Asphalt 0 ft / 0 m 590 ft / 180 m

MUHG

Details ICAO MUHG (HOG)
Name FRANK PAIS INTL
Region Cuba
Timezone America/Havana (UTC-4.0)
Stats Elevation 361 ft / 110 m (AMSL)
Location 20.785554° -76.315108°
Runways 1
Magnetic Variation 8.289° W

METAR

MUHG 260350Z 10005KT 7000 VCFG FEW030 BKN070 22/22 Q1014

Decode

TAF

TAF TAF AMD MUHG 251900Z 2519/2618 10010KT 9000 SCT030 TEMPO 2519/2524 VRB10KT 3000 TSRA SCT015CB BKN040 BECMG 2600/2602 VRB03KT

Decode

Destination Runways

ID Width Length Bearing (true) Bearing (mag) Surface Threshold Offset Overrun Length
05 148 ft / 45 m 10,642 ft / 3,244 m 46.12° 54.41° Asphalt 328 ft / 100 m 290 ft / 88 m
23 148 ft / 45 m 10,642 ft / 3,244 m 226.12° 234.41° Asphalt 0 ft / 0 m 0 ft / 0 m

Approach Navaids

Runway Type Ident Frequency Range Bearing (true) Bearing (mag) Slope Elevation
05 Localiser IHG 111.30 MHz 18 nm / 33 km 46.13° 54.42° - 361 ft / 110 m (AMSL)
05 Glidescope IHG 111.30 MHz 10 nm / 19 km 46.12° 54.41° 3.00° 361 ft / 110 m (AMSL)